Time;durP1;ratioP1;P1;durP2;ratioP2;P2;SDS_P1;SDS_P2;PMS_P1;PMS_P2;Temp;Humidity;BMP_temperature;BMP_pressure;BME280_temperature;BME280_humidity;BME280_pressure;Samples;Min_cycle;Max_cycle;Signal;HPM_P1;HPM_P2
2023/11/26 00:03:22;;;;;;;0.00;0.00;;;-0.40;65.80;;;;;;25471241;23;20064;-53
2023/11/26 00:13:24;;;;;;;0.00;0.00;;;-0.20;65.70;;;;;;25471117;23;20002;-45
2023/11/26 00:23:26;;;;;;;0.32;0.00;;;-0.30;65.90;;;;;;25470751;23;20016;-53
2023/11/26 00:33:28;;;;;;;0.00;0.00;;;-0.10;65.50;;;;;;25470573;23;20001;-47
2023/11/26 00:43:30;;;;;;;0.03;0.00;;;0.00;64.80;;;;;;25469669;23;20084;-45
2023/11/26 00:53:35;;;;;;;1.00;0.00;;;0.20;65.10;;;;;;25470476;23;20002;-46
2023/11/26 01:03:37;;;;;;;0.00;0.00;;;-0.10;65.50;;;;;;25475842;23;20382;-57
2023/11/26 01:13:41;;;;;;;0.35;0.00;;;-0.10;65.80;;;;;;25476181;23;20001;-49
2023/11/26 01:23:42;;;;;;;0.00;0.00;;;-0.30;67.20;;;;;;25476793;23;20500;-49
2023/11/26 01:33:44;;;;;;;0.00;0.00;;;-0.50;68.10;;;;;;25476630;23;20006;-49
2023/11/26 01:43:46;;;;;;;0.00;0.00;;;-0.70;67.10;;;;;;25475941;23;20026;-57
2023/11/26 01:53:52;;;;;;;0.00;0.00;;;-0.40;67.20;;;;;;25475530;23;20016;-47
2023/11/26 02:03:54;;;;;;;0.00;0.00;;;-0.70;68.10;;;;;;25474775;23;20064;-56
2023/11/26 02:13:56;;;;;;;0.00;0.00;;;-1.40;70.50;;;;;;25476647;23;20088;-55
2023/11/26 02:23:58;;;;;;;0.00;0.00;;;-1.40;69.90;;;;;;25473075;23;20010;-45
2023/11/26 02:34:00;;;;;;;0.00;0.00;;;-1.70;72.70;;;;;;25474267;23;20402;-57
2023/11/26 02:44:03;;;;;;;0.00;0.00;;;-2.50;74.80;;;;;;25472104;23;20338;-57
2023/11/26 02:54:09;;;;;;;0.00;0.00;;;-3.00;77.10;;;;;;25473164;23;20009;-56
2023/11/26 03:04:11;;;;;;;0.00;0.00;;;-3.20;77.80;;;;;;25472701;23;20005;-55
2023/11/26 03:14:15;;;;;;;0.10;0.00;;;-3.30;78.90;;;;;;25472628;23;20013;-47
2023/11/26 03:24:17;;;;;;;0.00;0.00;;;-3.50;79.60;;;;;;25471808;23;20032;-57
2023/11/26 03:34:19;;;;;;;0.00;0.00;;;-3.70;80.20;;;;;;25468880;23;20013;-49
2023/11/26 03:44:21;;;;;;;0.70;0.00;;;-3.80;80.70;;;;;;25470691;23;20010;-47
2023/11/26 03:54:24;;;;;;;0.00;0.00;;;-3.80;81.10;;;;;;25471027;23;20056;-45
2023/11/26 04:04:26;;;;;;;0.00;0.00;;;-3.70;79.40;;;;;;25471221;23;20010;-50
2023/11/26 04:14:31;;;;;;;0.00;0.00;;;-3.50;79.80;;;;;;25470791;23;20001;-45
2023/11/26 04:24:33;;;;;;;0.00;0.00;;;-3.60;78.90;;;;;;25470447;23;20381;-57
2023/11/26 04:34:35;;;;;;;0.00;0.00;;;-3.60;77.40;;;;;;25474240;23;20005;-54
2023/11/26 04:44:37;;;;;;;0.00;0.00;;;-3.50;80.00;;;;;;25452531;23;20014;-45
2023/11/26 04:54:38;;;;;;;0.00;0.00;;;-3.80;81.00;;;;;;25478018;23;20069;-57
2023/11/26 05:04:41;;;;;;;0.00;0.00;;;-3.60;78.60;;;;;;25477785;23;20006;-45
2023/11/26 05:14:45;;;;;;;0.00;0.00;;;-3.60;79.00;;;;;;25477453;23;20041;-51
2023/11/26 05:24:47;;;;;;;0.00;0.00;;;-3.40;78.50;;;;;;25476897;23;20006;-46
2023/11/26 05:34:49;;;;;;;0.00;0.00;;;-3.20;74.60;;;;;;25475019;23;20060;-47
2023/11/26 05:44:51;;;;;;;0.00;0.00;;;-2.70;75.50;;;;;;25475774;23;20010;-56
2023/11/26 05:54:53;;;;;;;0.47;0.00;;;-3.00;78.40;;;;;;25475698;23;20025;-57
2023/11/26 06:04:57;;;;;;;0.10;0.00;;;-3.10;81.00;;;;;;25475599;23;20001;-52
2023/11/26 06:15:02;;;;;;;0.52;0.00;;;-3.50;83.80;;;;;;25476478;23;20009;-50
2023/11/26 06:25:10;;;;;;;0.10;0.00;;;-3.70;84.60;;;;;;25475623;23;20064;-53
2023/11/26 06:35:12;;;;;;;0.00;0.00;;;-3.90;86.80;;;;;;25515070;23;20377;-56
2023/11/26 06:45:14;;;;;;;0.10;0.00;;;-4.00;86.90;;;;;;25340398;23;20069;-48
2023/11/26 06:55:15;;;;;;;0.00;0.00;;;-3.90;87.40;;;;;;25339908;23;20013;-57
2023/11/26 07:05:17;;;;;;;0.05;0.00;;;-3.80;88.00;;;;;;25340342;23;20047;-57
2023/11/26 07:15:19;;;;;;;0.00;0.00;;;-3.70;87.10;;;;;;25358131;23;20068;-46
2023/11/26 07:25:21;;;;;;;0.52;0.00;;;-3.50;87.30;;;;;;25472524;23;20009;-51
2023/11/26 07:35:23;;;;;;;0.25;0.00;;;-3.10;88.90;;;;;;25472112;23;20002;-50
2023/11/26 07:45:28;;;;;;;0.00;0.00;;;-2.20;86.90;;;;;;25469984;23;20021;-45
2023/11/26 07:55:31;;;;;;;0.00;0.00;;;-0.90;84.00;;;;;;25472599;23;20064;-45
2023/11/26 08:05:36;;;;;;;0.20;0.00;;;0.40;79.70;;;;;;25470852;23;20056;-56
2023/11/26 08:15:39;;;;;;;0.20;0.10;;;1.00;77.70;;;;;;25472261;23;20009;-56
2023/11/26 08:25:43;;;;;;;0.47;0.10;;;1.50;76.90;;;;;;25470706;23;20001;-56
2023/11/26 08:35:50;;;;;;;0.00;0.00;;;2.00;76.40;;;;;;25470270;23;20084;-56
2023/11/26 08:45:53;;;;;;;0.10;0.00;;;2.40;76.00;;;;;;25477462;23;20017;-51
2023/11/26 08:55:56;;;;;;;0.38;0.10;;;2.60;76.40;;;;;;25470150;23;20017;-56
2023/11/26 09:05:58;;;;;;;0.00;0.00;;;2.80;75.80;;;;;;25469909;23;20072;-46
2023/11/26 09:16:00;;;;;;;0.10;0.00;;;2.90;76.40;;;;;;25469886;23;20005;-55
2023/11/26 09:26:04;;;;;;;0.45;0.00;;;2.90;76.00;;;;;;25476649;23;20006;-55
2023/11/26 09:36:06;;;;;;;0.32;0.00;;;3.40;75.10;;;;;;25475663;23;20519;-56
2023/11/26 09:46:09;;;;;;;0.10;0.00;;;3.60;73.70;;;;;;25475850;23;20067;-47
2023/11/26 09:57:11;;;;;;;0.20;0.00;;;4.00;72.80;;;;;;25446265;23;20076;-45
2023/11/26 10:07:33;;;;;;;0.15;0.00;;;3.90;71.80;;;;;;25511533;23;20089;-54
2023/11/26 10:17:35;;;;;;;0.10;0.00;;;3.90;71.10;;;;;;25514908;23;20010;-57
2023/11/26 10:27:36;;;;;;;0.10;0.00;;;4.10;71.20;;;;;;25474429;23;20013;-50
2023/11/26 10:37:38;;;;;;;0.10;0.00;;;4.40;69.60;;;;;;25474123;23;20061;-45
2023/11/26 10:47:41;;;;;;;0.10;0.00;;;4.50;68.60;;;;;;25473668;23;20014;-52
2023/11/26 10:57:48;;;;;;;0.10;0.00;;;4.80;68.20;;;;;;25472888;23;20092;-51
2023/11/26 11:07:51;;;;;;;0.10;0.00;;;4.70;68.80;;;;;;25513683;23;20345;-56
2023/11/26 11:17:54;;;;;;;0.03;0.00;;;4.90;67.50;;;;;;25471596;23;20507;-55
2023/11/26 11:28:00;;;;;;;0.10;0.00;;;5.30;67.80;;;;;;25472354;23;20014;-56
2023/11/26 11:38:06;;;;;;;0.10;0.00;;;5.70;69.80;;;;;;25510804;23;20005;-56
2023/11/26 11:48:08;;;;;;;0.10;0.00;;;5.60;66.10;;;;;;25513148;23;20013;-51
2023/11/26 11:58:13;;;;;;;1.05;0.10;;;5.90;68.80;;;;;;25471226;23;20017;-52
2023/11/26 12:08:15;;;;;;;0.10;0.00;;;6.90;67.50;;;;;;25470440;23;20005;-56
2023/11/26 12:18:17;;;;;;;0.35;0.10;;;7.00;67.00;;;;;;25470210;23;20005;-52
2023/11/26 12:28:19;;;;;;;0.38;0.00;;;7.10;64.50;;;;;;25470510;23;20006;-56
2023/11/26 12:38:25;;;;;;;0.70;0.10;;;7.10;65.00;;;;;;25470006;23;20045;-50
2023/11/26 12:48:32;;;;;;;0.35;0.10;;;6.90;66.30;;;;;;25469421;23;20056;-49
2023/11/26 12:58:34;;;;;;;0.10;0.10;;;6.20;67.30;;;;;;25475621;23;20029;-57
2023/11/26 13:08:36;;;;;;;0.52;0.10;;;5.80;66.50;;;;;;25477617;23;20076;-52
2023/11/26 13:18:39;;;;;;;1.88;0.05;;;5.30;68.40;;;;;;25475665;23;20014;-58
2023/11/26 13:28:41;;;;;;;0.52;0.22;;;4.70;68.70;;;;;;25476862;23;20495;-58
2023/11/26 13:38:43;;;;;;;0.50;0.20;;;4.40;67.80;;;;;;25476077;23;20311;-53
2023/11/26 13:48:45;;;;;;;0.22;0.00;;;4.20;68.60;;;;;;25475865;23;20017;-50
2023/11/26 13:58:47;;;;;;;2.58;0.20;;;4.00;68.10;;;;;;25473961;23;20009;-57
2023/11/26 14:08:50;;;;;;;68.88;38.67;;;3.60;68.80;;;;;;25474841;23;20092;-57
2023/11/26 14:18:52;;;;;;;0.30;0.00;;;3.40;68.20;;;;;;25474200;23;20454;-49
2023/11/26 14:28:55;;;;;;;0.00;0.00;;;3.10;70.00;;;;;;25473880;23;20006;-58
2023/11/26 14:39:00;;;;;;;0.70;0.30;;;2.90;69.80;;;;;;25473673;23;20021;-48
2023/11/26 14:49:03;;;;;;;1.13;0.50;;;2.50;76.00;;;;;;25473292;23;20006;-56
2023/11/26 14:59:05;;;;;;;0.93;0.30;;;2.10;80.80;;;;;;25472812;23;20013;-56
2023/11/26 15:09:07;;;;;;;0.40;0.10;;;1.30;81.10;;;;;;25472688;23;20040;-58
2023/11/26 15:19:09;;;;;;;0.38;0.20;;;0.30;81.80;;;;;;25470698;23;20068;-58
2023/11/26 15:29:11;;;;;;;0.30;0.20;;;-0.40;85.60;;;;;;25472431;23;20008;-54
2023/11/26 15:39:20;;;;;;;0.60;0.30;;;-1.00;87.50;;;;;;25216314;23;20576;-48
2023/11/26 15:49:23;;;;;;;0.40;0.20;;;-1.30;88.40;;;;;;25227171;23;20002;-51
2023/11/26 15:59:26;;;;;;;0.82;0.10;;;-1.50;90.00;;;;;;25216865;23;20010;-52
2023/11/26 16:09:30;;;;;;;0.45;0.10;;;-1.50;88.20;;;;;;25257042;23;20009;-57
2023/11/26 16:19:35;;;;;;;0.40;0.10;;;-1.50;86.90;;;;;;25337543;23;20389;-57
2023/11/26 16:29:37;;;;;;;0.08;0.00;;;-1.20;85.00;;;;;;25340207;23;20009;-58
2023/11/26 16:39:39;;;;;;;0.20;0.00;;;-1.30;84.70;;;;;;25319933;23;20438;-57
2023/11/26 16:49:44;;;;;;;0.28;0.10;;;-1.40;86.10;;;;;;25451877;23;20006;-58
2023/11/26 16:59:46;;;;;;;0.30;0.10;;;-1.40;84.90;;;;;;25478007;23;20353;-57
2023/11/26 17:09:48;;;;;;;0.20;0.00;;;-0.60;81.80;;;;;;25477572;23;20009;-58
2023/11/26 17:19:50;;;;;;;0.85;0.10;;;0.10;77.00;;;;;;25477126;23;20005;-57
2023/11/26 17:29:52;;;;;;;0.30;0.17;;;0.80;76.50;;;;;;25475713;23;20005;-57
2023/11/26 17:39:53;;;;;;;0.28;0.10;;;0.40;77.40;;;;;;25475631;23;20010;-46
2023/11/26 17:49:55;;;;;;;0.20;0.10;;;0.30;78.30;;;;;;25473231;23;20014;-57
2023/11/26 17:59:57;;;;;;;0.05;0.00;;;-0.30;79.20;;;;;;25475907;23;20052;-58
2023/11/26 18:10:00;;;;;;;0.17;0.10;;;-0.40;80.20;;;;;;25476218;23;20009;-46
2023/11/26 18:20:03;;;;;;;0.10;0.00;;;-0.60;81.20;;;;;;25473447;23;20385;-47
2023/11/26 18:30:09;;;;;;;0.20;0.10;;;-0.60;80.50;;;;;;25515409;23;20009;-46
2023/11/26 18:40:12;;;;;;;0.70;0.10;;;-0.80;80.40;;;;;;25473779;23;20014;-58
2023/11/26 18:50:14;;;;;;;0.10;0.05;;;-0.90;81.20;;;;;;25473853;23;20009;-58
2023/11/26 19:00:17;;;;;;;0.30;0.10;;;-0.70;80.50;;;;;;25472690;23;20052;-57
2023/11/26 19:10:19;;;;;;;0.47;0.00;;;-0.80;80.00;;;;;;25472575;23;20013;-57
2023/11/26 19:20:21;;;;;;;0.20;0.08;;;-0.60;78.90;;;;;;25472473;23;20062;-47
2023/11/26 19:30:23;;;;;;;0.25;0.10;;;-0.90;79.60;;;;;;25472277;23;20518;-58
2023/11/26 19:40:25;;;;;;;0.50;0.10;;;-1.00;80.00;;;;;;25471676;23;20020;-57
2023/11/26 19:50:28;;;;;;;0.40;0.10;;;-1.20;82.00;;;;;;25338177;23;20387;-57
2023/11/26 20:00:35;;;;;;;0.22;0.00;;;-1.70;83.70;;;;;;25336694;23;20006;-58
2023/11/26 20:10:37;;;;;;;0.25;0.05;;;-1.90;83.70;;;;;;25337045;23;20006;-58
2023/11/26 20:20:40;;;;;;;0.28;0.08;;;-1.80;83.80;;;;;;25443890;23;20100;-58
2023/11/26 20:30:45;;;;;;;0.10;0.00;;;-2.00;84.30;;;;;;25470667;23;20006;-58
2023/11/26 20:40:47;;;;;;;0.40;0.00;;;-2.10;84.70;;;;;;25468602;23;20021;-57
2023/11/26 20:50:48;;;;;;;0.13;0.10;;;-2.10;84.10;;;;;;25470223;23;20009;-58
2023/11/26 21:00:51;;;;;;;0.30;0.10;;;-2.10;85.60;;;;;;25470248;23;20010;-56
2023/11/26 21:10:56;;;;;;;0.13;0.08;;;-2.00;84.00;;;;;;25469825;23;20008;-51
2023/11/26 21:20:59;;;;;;;0.30;0.00;;;-1.90;83.90;;;;;;25475681;23;20016;-47
2023/11/26 21:31:03;;;;;;;0.65;0.00;;;-1.80;82.00;;;;;;25464438;23;20105;-47
2023/11/26 21:41:09;;;;;;;0.00;0.00;;;-1.80;83.00;;;;;;25465263;23;20491;-45
2023/11/26 21:51:11;;;;;;;0.28;0.00;;;-1.90;82.10;;;;;;25462396;23;20005;-52
2023/11/26 22:01:15;;;;;;;0.25;0.08;;;-1.70;81.30;;;;;;25417573;23;20477;-48
2023/11/26 22:11:18;;;;;;;0.30;0.10;;;-1.60;81.40;;;;;;25475991;23;20010;-53
2023/11/26 22:21:21;;;;;;;0.30;0.05;;;-1.80;81.60;;;;;;25474018;23;20005;-56
2023/11/26 22:31:23;;;;;;;0.30;0.00;;;-1.80;81.30;;;;;;25474064;23;20303;-58
2023/11/26 22:41:30;;;;;;;0.55;0.10;;;-2.00;83.60;;;;;;25474047;23;20064;-46
2023/11/26 22:51:33;;;;;;;1.02;0.10;;;-2.10;82.40;;;;;;25472114;23;20002;-47
2023/11/26 23:01:35;;;;;;;0.05;0.00;;;-2.30;83.50;;;;;;25473174;23;20013;-53
2023/11/26 23:11:37;;;;;;;0.40;0.10;;;-2.50;83.70;;;;;;25473100;23;20005;-57
2023/11/26 23:21:39;;;;;;;0.10;0.00;;;-2.40;83.60;;;;;;25446147;23;20391;-53
2023/11/26 23:31:41;;;;;;;0.28;0.08;;;-2.20;82.90;;;;;;25472162;23;20005;-56
2023/11/26 23:41:43;;;;;;;0.65;0.10;;;-2.40;84.50;;;;;;25469379;23;20013;-47
2023/11/26 23:51:45;;;;;;;0.10;0.08;;;-2.50;83.80;;;;;;25471257;23;20389;-57
